地図

経路データ

SID SEASON NUMBER BASIN SUBBASIN NAME ISO_TIME NATURE LAT LON WMO_WIND WMO_PRES WMO_AGENCY TRACK_TYPE DIST2LAND LANDFALL IFLAG USA_AGENCY USA_ATCF_ID USA_LAT USA_LON USA_RECORD USA_STATUS USA_WIND USA_PRES USA_SSHS USA_R34_NE USA_R34_SE USA_R34_SW USA_R34_NW USA_R50_NE USA_R50_SE USA_R50_SW USA_R50_NW USA_R64_NE USA_R64_SE USA_R64_SW USA_R64_NW USA_POCI USA_ROCI USA_RMW USA_EYE TOKYO_LAT TOKYO_LON TOKYO_GRADE TOKYO_WIND TOKYO_PRES TOKYO_R50_DIR TOKYO_R50_LONG TOKYO_R50_SHORT TOKYO_R30_DIR TOKYO_R30_LONG TOKYO_R30_SHORT TOKYO_LAND CMA_LAT CMA_LON CMA_CAT CMA_WIND CMA_PRES HKO_LAT HKO_LON HKO_CAT HKO_WIND HKO_PRES NEWDELHI_LAT NEWDELHI_LON NEWDELHI_GRADE NEWDELHI_WIND NEWDELHI_PRES NEWDELHI_CI NEWDELHI_DP NEWDELHI_POCI REUNION_LAT REUNION_LON REUNION_TYPE REUNION_WIND REUNION_PRES REUNION_TNUM REUNION_CI REUNION_RMW REUNION_R34_NE REUNION_R34_SE REUNION_R34_SW REUNION_R34_NW REUNION_R50_NE REUNION_R50_SE REUNION_R50_SW REUNION_R50_NW REUNION_R64_NE REUNION_R64_SE REUNION_R64_SW REUNION_R64_NW BOM_LAT BOM_LON BOM_TYPE BOM_WIND BOM_PRES BOM_TNUM BOM_CI BOM_RMW BOM_R34_NE BOM_R34_SE BOM_R34_SW BOM_R34_NW BOM_R50_NE BOM_R50_SE BOM_R50_SW BOM_R50_NW BOM_R64_NE BOM_R64_SE BOM_R64_SW BOM_R64_NW BOM_ROCI BOM_POCI BOM_EYE BOM_POS_METHOD BOM_PRES_METHOD NADI_LAT NADI_LON NADI_CAT NADI_WIND NADI_PRES WELLINGTON_LAT WELLINGTON_LON WELLINGTON_WIND WELLINGTON_PRES DS824_LAT DS824_LON DS824_STAGE DS824_WIND DS824_PRES TD9636_LAT TD9636_LON TD9636_STAGE TD9636_WIND TD9636_PRES TD9635_LAT TD9635_LON TD9635_WIND TD9635_PRES TD9635_ROCI NEUMANN_LAT NEUMANN_LON NEUMANN_CLASS NEUMANN_WIND NEUMANN_PRES MLC_LAT MLC_LON MLC_CLASS MLC_WIND MLC_PRES USA_GUST BOM_GUST BOM_GUST_PER REUNION_GUST REUNION_GUST_PER USA_SEAHGT USA_SEARAD_NE USA_SEARAD_SE USA_SEARAD_SW USA_SEARAD_NW STORM_SPEED STORM_DIR
2020245N23146 2020 28 WP MM HAISHEN 2020-08-31 12:00:00 NR 22.9000 145.800 PROVISIONAL 1456 1456 O_____________ tcvitals WP112020 22.9000 145.800 25 1006 -1 1009 230 60 13 224
2020245N23146 2020 28 WP MM HAISHEN 2020-08-31 15:00:00 NR 22.4354 145.306 PROVISIONAL 1490 1487 P_____________ WP112020 22.4354 145.306 30 1004 -1 1008 152 40 12 226
2020245N23146 2020 28 WP MM HAISHEN 2020-08-31 18:00:00 NR 22.1000 144.900 PROVISIONAL 1509 1506 O_____________ tcvitals WP112020 22.1000 144.900 35 1002 0 20 45 50 30 1008 75 20 8 232
2020245N23146 2020 28 WP MM HAISHEN 2020-08-31 21:00:00 NR 21.9573 144.640 PROVISIONAL 1510 1510 P_____________ WP112020 21.9573 144.640 35 1002 0 27 47 62 30 1008 137 35 5 231
2020245N23146 2020 28 WP MM HAISHEN 2020-09-01 00:00:00 NR 21.8000 144.500 PROVISIONAL 1529 1529 O_____________ tcvitals WP112020 21.8000 144.500 35 1002 0 35 50 75 30 1008 200 50 6 197
2020245N23146 2020 28 WP MM HAISHEN 2020-09-01 03:00:00 NR 21.3574 144.443 PROVISIONAL 1569 1569 P_____________ WP112020 21.3574 144.443 37 1000 0 50 80 90 60 1007 210 60 9 186
2020245N23146 2020 28 WP MM HAISHEN 2020-09-01 06:00:00 NR 20.9000 144.400 PROVISIONAL 1623 1623 O_____________ tcvitals WP112020 20.9000 144.400 39 999 0 65 110 105 90 1007 220 70 7 190
2020245N23146 2020 28 WP MM HAISHEN 2020-09-01 09:00:00 NR 20.6548 144.310 PROVISIONAL 1642 1642 P_____________ WP112020 20.6548 144.310 39 999 0 65 110 105 90 1007 205 70 5 215
2020245N23146 2020 28 WP MM HAISHEN 2020-09-01 12:00:00 NR 20.5000 144.100 PROVISIONAL 1656 1647 O_____________ tcvitals WP112020 20.5000 144.100 39 1000 0 65 110 105 90 1008 190 70 6 245
2020245N23146 2020 28 WP MM HAISHEN 2020-09-01 15:00:00 NR 20.3877 143.688 PROVISIONAL 1647 1639 P_____________ WP112020 20.3877 143.688 42 997 0 67 102 102 82 1007 200 60 9 250
2020245N23146 2020 28 WP MM HAISHEN 2020-09-01 18:00:00 NR 20.2000 143.200 PROVISIONAL 1645 1645 O_____________ tcvitals WP112020 20.2000 143.200 45 995 0 70 95 100 75 1007 210 50 10 232
2020245N23146 2020 28 WP MM HAISHEN 2020-09-01 21:00:00 NR 19.7572 142.815 PROVISIONAL 1669 1669 P_____________ WP112020 19.7572 142.815 49 993 0 77 97 117 82 1008 217 37 12 220
2020245N23146 2020 28 WP MM HAISHEN 2020-09-02 00:00:00 NR 19.3000 142.400 PROVISIONAL 1705 1701 O_____________ tcvitals WP112020 19.3000 142.400 54 991 0 85 100 135 90 1009 225 25 12 229
2020245N23146 2020 28 WP MM HAISHEN 2020-09-02 03:00:00 NR 18.9802 141.857 PROVISIONAL 1718 1709 P_____________ WP112020 18.9802 141.857 59 988 0 97 85 127 108 1008 217 22 11 249
2020245N23146 2020 28 WP MM HAISHEN 2020-09-02 06:00:00 NR 18.9000 141.300 PROVISIONAL 1709 1661 O_____________ tcvitals WP112020 18.9000 141.300 64 986 1 110 70 120 126 1007 210 20 10 282
2020245N23146 2020 28 WP MM HAISHEN 2020-09-02 09:00:00 NR 19.1822 140.851 PROVISIONAL 1661 1595 P_____________ WP112020 19.1822 140.851 67 985 1 112 102 110 120 1008 215 20 11 309
2020245N23146 2020 28 WP MM HAISHEN 2020-09-02 12:00:00 NR 19.6000 140.400 PROVISIONAL 1595 1539 O_____________ tcvitals WP112020 19.6000 140.400 70 984 1 115 135 100 115 1010 220 20 12 307
2020245N23146 2020 28 WP MM HAISHEN 2020-09-02 15:00:00 NR 19.8951 139.843 PROVISIONAL 1534 1488 P_____________ WP112020 19.8951 139.843 72 982 1 120 135 113 117 1009 220 17 12 296
2020245N23146 2020 28 WP MM HAISHEN 2020-09-02 18:00:00 NR 20.1000 139.300 PROVISIONAL 1488 1457 O_____________ tcvitals WP112020 20.1000 139.300 74 980 1 126 135 126 120 1009 220 14 9 286
2020245N23146 2020 28 WP MM HAISHEN 2020-09-02 21:00:00 NR 20.1572 138.884 PROVISIONAL 1457 1436 P_____________ WP112020 20.1572 138.884 79 976 1 138 140 123 123 1009 220 14 8 278
2020245N23146 2020 28 WP MM HAISHEN 2020-09-03 00:00:00 NR 20.2000 138.500 PROVISIONAL 1436 1395 O_____________ tcvitals WP112020 20.2000 138.500 84 972 2 150 145 120 126 1009 220 14 8 286
2020245N23146 2020 28 WP MM HAISHEN 2020-09-03 03:00:00 NR 20.3773 138.073 PROVISIONAL 1395 1350 P_____________ WP112020 20.3773 138.073 88 965 2 167 152 127 153 1007 210 14 9 295
2020245N23146 2020 28 WP MM HAISHEN 2020-09-03 06:00:00 NR 20.6000 137.600 PROVISIONAL 1350 1305 O_____________ tcvitals WP112020 20.6000 137.600 93 959 2 185 160 135 180 1006 200 14 11 294
2020245N23146 2020 28 WP MM HAISHEN 2020-09-03 09:00:00 NR 20.8152 137.035 PROVISIONAL 1301 1257 P_____________ WP112020 20.8152 137.035 96 958 3 187 160 137 175 1007 202 9 11 291
2020245N23146 2020 28 WP MM HAISHEN 2020-09-03 12:00:00 NR 21.0000 136.500 PROVISIONAL 1257 1229 O_____________ tcvitals WP112020 21.0000 136.500 99 957 3 190 160 140 170 1008 205 5 9 288
2020245N23146 2020 28 WP MM HAISHEN 2020-09-03 15:00:00 NR 21.0922 136.120 PROVISIONAL 1229 1206 P_____________ WP112020 21.0922 136.120 111 945 3 187 160 142 172 1008 205 8 7 287
2020245N23146 2020 28 WP MM HAISHEN 2020-09-03 18:00:00 NR 21.2000 135.800 PROVISIONAL 1206 1173 O_____________ tcvitals WP112020 21.2000 135.800 124 934 4 185 160 145 175 1008 205 12 7 299
2020245N23146 2020 28 WP MM HAISHEN 2020-09-03 21:00:00 NR 21.4274 135.458 PROVISIONAL 1173 1127 P_____________ WP112020 21.4274 135.458 129 927 4 197 177 152 185 1007 207 17 8 307
2020245N23146 2020 28 WP MM HAISHEN 2020-09-04 00:00:00 NR 21.7000 135.100 PROVISIONAL 1127 1091 O_____________ tcvitals WP112020 21.7000 135.100 134 920 4 210 195 160 195 1006 210 22 9 307
2020245N23146 2020 28 WP MM HAISHEN 2020-09-04 03:00:00 NR 21.9500 134.707 PROVISIONAL 1091 1045 P_____________ WP112020 21.9500 134.707 134 917 4 217 200 160 195 1004 207 22 9 304
2020245N23146 2020 28 WP MM HAISHEN 2020-09-04 06:00:00 NR 22.2000 134.300 PROVISIONAL 1045 1011 O_____________ tcvitals WP112020 22.2000 134.300 134 915 4 225 205 160 195 1002 205 22 9 303
2020245N23146 2020 28 WP MM HAISHEN 2020-09-04 09:00:00 NR 22.4424 133.900 PROVISIONAL 1011 967 P_____________ WP112020 22.4424 133.900 134 915 4 217 197 157 197 1002 205 21 9 304
2020245N23146 2020 28 WP MM HAISHEN 2020-09-04 12:00:00 NR 22.7000 133.500 PROVISIONAL 967 924 O_____________ tcvitals WP112020 22.7000 133.500 134 916 4 210 190 155 200 1003 205 20 9 306
2020245N23146 2020 28 WP MM HAISHEN 2020-09-04 15:00:00 NR 22.9850 133.092 PROVISIONAL 924 882 P_____________ WP112020 22.9850 133.092 134 916 4 222 200 160 210 1002 190 17 10 309
2020245N23146 2020 28 WP MM HAISHEN 2020-09-04 18:00:00 NR 23.3000 132.700 PROVISIONAL 882 841 O_____________ tcvitals WP112020 23.3000 132.700 134 916 4 235 210 165 220 1002 175 14 10 313
2020245N23146 2020 28 WP MM HAISHEN 2020-09-04 21:00:00 NR 23.6500 132.327 PROVISIONAL 841 792 P_____________ WP112020 23.6500 132.327 129 922 4 217 197 162 197 1002 167 17 10 317
2020245N23146 2020 28 WP MM HAISHEN 2020-09-05 00:00:00 NR 24.0000 132.000 PROVISIONAL 792 754 O_____________ tcvitals WP112020 24.0000 132.000 124 929 4 200 185 160 175 1002 160 20 8 320
2020245N23146 2020 28 WP MM HAISHEN 2020-09-05 03:00:00 NR 24.2924 131.735 PROVISIONAL 754 718 P_____________ WP112020 24.2924 131.735 119 930 4 200 185 160 175 1001 175 20 8 323
2020245N23146 2020 28 WP MM HAISHEN 2020-09-05 06:00:00 NR 24.6000 131.500 PROVISIONAL 718 671 O_____________ tcvitals WP112020 24.6000 131.500 115 931 4 200 185 160 175 1000 190 20 8 326
2020245N23146 2020 28 WP MM HAISHEN 2020-09-05 09:00:00 NR 24.9775 131.235 PROVISIONAL 671 625 P_____________ WP112020 24.9775 131.235 115 931 4 190 177 155 182 1000 207 18 9 330
2020245N23146 2020 28 WP MM HAISHEN 2020-09-05 12:00:00 NR 25.4000 131.000 PROVISIONAL 625 580 O_____________ tcvitals WP112020 25.4000 131.000 115 931 4 180 170 150 190 1000 225 17 9 337
2020245N23146 2020 28 WP MM HAISHEN 2020-09-05 15:00:00 NR 25.8199 130.842 PROVISIONAL 580 524 P_____________ WP112020 25.8199 130.842 110 932 3 222 222 187 237 1001 245 17 9 343
2020245N23146 2020 28 WP MM HAISHEN 2020-09-05 18:00:00 NR 26.3000 130.700 PROVISIONAL 524 469 O_____________ tcvitals WP112020 26.3000 130.700 105 934 3 265 275 225 285 1002 265 17 11 343
2020245N23146 2020 28 WP MM HAISHEN 2020-09-05 21:00:00 NR 26.8326 130.500 PROVISIONAL 469 392 P_____________ WP112020 26.8326 130.500 99 939 3 275 275 232 257 1002 262 17 13 343
2020245N23146 2020 28 WP MM HAISHEN 2020-09-06 00:00:00 NR 27.5000 130.300 PROVISIONAL 392 305 O_____________ tcvitals WP112020 27.5000 130.300 93 944 2 285 275 240 230 1002 260 17 16 349
2020245N23146 2020 28 WP MM HAISHEN 2020-09-06 03:00:00 NR 28.3699 130.164 PROVISIONAL 294 201 P_____________ WP112020 28.3699 130.164 93 946 2 262 255 200 205 1002 260 17 18 352
2020245N23146 2020 28 WP MM HAISHEN 2020-09-06 06:00:00 NR 29.3000 130.000 PROVISIONAL 201 142 O_____________ tcvitals WP112020 29.3000 130.000 93 948 2 240 235 160 180 1002 260 17 17 347
2020245N23146 2020 28 WP MM HAISHEN 2020-09-06 09:00:00 NR 30.0627 129.700 PROVISIONAL 131 86 P_____________ WP112020 30.0627 129.700 93 946 2 272 262 187 220 1002 260 17 17 342
2020245N23146 2020 28 WP MM HAISHEN 2020-09-06 12:00:00 NR 30.9000 129.400 PROVISIONAL 83 76 O_____________ tcvitals WP112020 30.9000 129.400 93 945 2 305 290 215 260 1002 260 17 20 348
2020245N23146 2020 28 WP MM HAISHEN 2020-09-06 15:00:00 NR 31.9975 129.220 PROVISIONAL 81 46 P_____________ WP112020 31.9975 129.220 88 948 2 277 282 205 230 1001 297 11 23 354
2020245N23146 2020 28 WP MM HAISHEN 2020-09-06 18:00:00 NR 33.2000 129.100 PROVISIONAL 46 46 O_____________ tcvitals WP112020 33.2000 129.100 84 952 2 250 275 195 200 1001 335 5 23 355
2020245N23146 2020 28 WP MM HAISHEN 2020-09-06 21:00:00 NR 34.3125 128.970 PROVISIONAL 78 0 P_____________ WP112020 34.3125 128.970 64 959 1 265 282 197 210 1000 320 11 23 356
2020245N23146 2020 28 WP MM HAISHEN 2020-09-07 00:00:00 NR 35.5000 128.900 PROVISIONAL 0 0 O_____________ tcvitals WP112020 35.5000 128.900 45 966 0 280 290 200 220 1000 305 17 26 0
2020245N23146 2020 28 WP MM HAISHEN 2020-09-07 03:00:00 NR 36.8925 128.941 PROVISIONAL 0 0 P_____________ WP112020 36.8925 128.941 52 968 0 280 287 200 217 1001 330 17 28 2
2020245N23146 2020 28 WP MM HAISHEN 2020-09-07 06:00:00 NR 38.3000 129.000 PROVISIONAL 41 41 O_____________ tcvitals WP112020 38.3000 129.000 60 970 0 280 285 200 215 1003 355 17 27 1
2020245N23146 2020 28 WP MM HAISHEN 2020-09-07 09:00:00 NR 39.5524 128.979 PROVISIONAL 74 0 P_____________ WP112020 39.5524 128.979 47 976 0 270 282 205 182 1003 347 53 24 358
2020245N23146 2020 28 WP MM HAISHEN 2020-09-07 12:00:00 NR 40.7000 128.900 PROVISIONAL 0 O_____________ tcvitals WP112020 40.7000 128.900 35 983 0 260 280 210 150 1004 340 89 23 357

デジタル台風データ・検索

IBTrACS Databaseについて

本データベースは、米国NOAAが公開する1842年以降の世界の熱帯低気圧のベストトラックデータアーカイブInternational Best Track Archive for Climate Stewardship (IBTrACS)を、ウェブで閲覧しやすい形式に変換したものです。

最終更新日:2021-12-01